createdAt,value
2023-02-11T00:02:20.746Z,15.86
2023-02-11T00:07:19.057Z,16.06
2023-02-11T00:12:18.349Z,16.06
2023-02-11T00:17:16.674Z,12.31
2023-02-11T00:22:15.884Z,27.24
2023-02-11T00:27:15.122Z,35.90
2023-02-11T00:32:14.240Z,17.93
2023-02-11T00:37:13.545Z,17.43
2023-02-11T00:42:12.848Z,17.33
2023-02-11T00:47:12.169Z,17.43
2023-02-11T00:52:11.481Z,17.76
2023-02-11T00:57:10.816Z,18.17
2023-02-11T01:02:09.942Z,18.58
2023-02-11T01:07:10.272Z,19.10
2023-02-11T01:12:08.629Z,19.52
2023-02-11T01:17:08.736Z,20.03
2023-02-11T01:22:07.119Z,20.35
2023-02-11T01:27:07.254Z,20.67
2023-02-11T01:32:06.639Z,20.87
2023-02-11T01:37:05.740Z,21.08
2023-02-11T01:42:04.056Z,21.30
2023-02-11T01:47:04.390Z,21.61
2023-02-11T01:52:03.765Z,21.83
2023-02-11T01:57:02.893Z,22.04
2023-02-11T02:02:02.164Z,22.35
2023-02-11T02:07:01.302Z,22.56
2023-02-11T02:12:01.649Z,22.88
2023-02-11T02:16:58.947Z,23.10
2023-02-11T02:21:58.267Z,23.41
2023-02-11T02:26:57.572Z,23.72
2023-02-11T02:31:57.911Z,23.93
2023-02-11T02:36:57.018Z,24.14
2023-02-11T02:41:56.331Z,24.35
2023-02-11T02:46:55.673Z,24.57
2023-02-11T02:51:53.968Z,24.78
2023-02-11T02:56:55.094Z,24.88
2023-02-11T03:01:52.464Z,25.09
2023-02-11T03:06:51.616Z,25.20
2023-02-11T03:11:51.760Z,25.31
2023-02-11T03:16:50.087Z,25.42
2023-02-11T03:21:50.428Z,25.52
2023-02-11T03:26:48.731Z,25.53
2023-02-11T03:31:50.222Z,25.53
2023-02-11T03:36:47.383Z,25.44
2023-02-11T03:41:47.701Z,25.34
2023-02-11T03:46:46.021Z,25.35
2023-02-11T03:51:46.348Z,25.25
2023-02-11T03:56:45.667Z,25.16
2023-02-11T04:01:42.833Z,25.16
2023-02-11T04:06:42.978Z,25.07
2023-02-11T04:11:43.146Z,25.07
2023-02-11T04:16:43.365Z,24.98
2023-02-11T04:21:40.492Z,24.67
2023-02-11T04:26:40.677Z,24.36
2023-02-11T04:31:39.836Z,23.96
2023-02-11T04:36:37.961Z,23.64
2023-02-11T04:41:37.099Z,23.44
2023-02-11T04:46:37.256Z,23.45
2023-02-11T04:51:35.388Z,23.35
2023-02-11T04:56:36.525Z,23.45
2023-02-11T05:01:34.987Z,23.46
2023-02-11T05:06:34.166Z,23.46
2023-02-11T05:11:33.311Z,23.57
2023-02-11T05:16:31.519Z,23.57
2023-02-11T05:21:30.690Z,23.58
2023-02-11T05:26:29.819Z,23.69
2023-02-11T05:31:30.051Z,23.58
2023-02-11T05:36:31.137Z,23.60
2023-02-11T05:41:29.525Z,23.39
2023-02-11T05:46:27.909Z,23.28
2023-02-11T05:51:26.030Z,23.08
2023-02-11T05:56:26.351Z,22.87
2023-02-11T06:01:24.477Z,22.56
2023-02-11T06:06:25.639Z,22.47
2023-02-11T06:11:22.780Z,22.47
2023-02-11T06:16:23.018Z,22.58
2023-02-11T06:21:21.192Z,22.58
2023-02-11T06:26:20.307Z,22.59
2023-02-11T06:31:20.753Z,22.59
2023-02-11T06:36:20.940Z,22.70
2023-02-11T06:41:18.279Z,22.70
2023-02-11T06:46:17.610Z,22.60
2023-02-11T06:51:18.583Z,22.50
2023-02-11T06:56:16.938Z,22.28
2023-02-11T07:01:15.042Z,21.87
2023-02-11T07:06:14.365Z,21.46
2023-02-11T07:11:13.719Z,21.46
2023-02-11T07:16:12.877Z,21.47
2023-02-11T07:21:12.042Z,21.47
2023-02-11T07:26:12.173Z,21.57
2023-02-11T07:31:10.602Z,21.68
2023-02-11T07:36:10.788Z,21.78
2023-02-11T07:41:08.889Z,21.99
2023-02-11T07:46:08.226Z,22.30
2023-02-11T07:51:07.551Z,22.50
2023-02-11T07:56:06.868Z,21.76
2023-02-11T08:01:07.284Z,21.55
2023-02-11T08:06:05.415Z,19.23
2023-02-11T08:11:04.744Z,16.22
2023-02-11T08:16:04.092Z,16.02
2023-02-11T08:21:03.234Z,15.00
2023-02-11T08:26:02.535Z,13.96
2023-02-11T08:31:01.857Z,12.12
2023-02-11T08:35:59.946Z,10.99
2023-02-11T08:41:01.226Z,10.79
2023-02-11T08:46:01.915Z,10.59
2023-02-11T08:50:59.698Z,10.38
2023-02-11T08:55:57.988Z,10.18
2023-02-11T09:00:57.321Z,9.98
2023-02-11T09:05:56.605Z,9.98
2023-02-11T09:10:55.897Z,9.88
2023-02-11T09:15:56.177Z,9.67
2023-02-11T09:20:55.509Z,9.38
2023-02-11T09:25:55.635Z,9.27
2023-02-11T09:30:54.339Z,9.27
2023-02-11T09:35:52.139Z,9.26
2023-02-11T09:40:51.542Z,9.16
2023-02-11T09:45:51.750Z,9.06
2023-02-11T09:50:51.104Z,8.95
2023-02-11T09:55:49.012Z,8.95
2023-02-11T10:00:49.541Z,9.16
2023-02-11T10:05:48.620Z,9.06
2023-02-11T10:10:46.918Z,9.16
2023-02-11T10:15:47.301Z,9.16
2023-02-11T10:20:46.465Z,9.26
2023-02-11T10:25:46.617Z,9.36
2023-02-11T10:30:43.999Z,9.45
2023-02-11T10:35:44.161Z,9.36
2023-02-11T10:40:42.492Z,9.25
2023-02-11T10:45:42.629Z,9.36
2023-02-11T10:50:41.121Z,9.45
2023-02-11T10:55:40.250Z,9.55
2023-02-11T11:00:39.595Z,9.35
2023-02-11T11:05:38.732Z,9.25
2023-02-11T11:10:38.179Z,9.25
2023-02-11T11:15:38.347Z,9.45
2023-02-11T11:20:38.505Z,9.75
2023-02-11T11:25:36.694Z,10.36
2023-02-11T11:30:35.012Z,10.36
2023-02-11T11:35:34.313Z,11.25
2023-02-11T11:40:33.878Z,11.12
2023-02-11T11:45:32.788Z,11.42
2023-02-11T11:50:32.103Z,12.21
2023-02-11T11:55:31.451Z,12.01
2023-02-11T12:00:30.832Z,11.91
2023-02-11T12:05:30.740Z,12.32
2023-02-11T12:10:29.021Z,12.63
2023-02-11T12:15:27.338Z,11.91
2023-02-11T12:20:28.760Z,12.01
2023-02-11T12:25:27.858Z,11.41
2023-02-11T12:30:26.418Z,11.20
2023-02-11T12:35:26.596Z,10.80
2023-02-11T12:40:24.557Z,10.81
2023-02-11T12:45:24.736Z,11.32
2023-02-11T12:50:24.112Z,11.73
2023-02-11T12:55:22.031Z,11.52
2023-02-11T13:00:21.610Z,11.33
2023-02-11T13:05:20.503Z,10.92
2023-02-11T13:10:22.172Z,10.61
2023-02-11T13:15:21.222Z,10.82
2023-02-11T13:20:19.528Z,11.13
2023-02-11T13:25:17.559Z,11.43
2023-02-11T13:30:18.048Z,11.83
2023-02-11T13:35:16.079Z,11.53
2023-02-11T13:40:16.274Z,11.63
2023-02-11T13:45:16.425Z,11.81
2023-02-11T13:50:14.652Z,12.20
2023-02-11T13:55:12.985Z,12.30
2023-02-11T14:00:12.269Z,13.01
2023-02-11T14:05:12.320Z,13.32
2023-02-11T14:10:10.518Z,13.71
2023-02-11T14:15:11.185Z,13.51
2023-02-11T14:20:08.961Z,13.01
2023-02-11T14:25:08.463Z,13.68
2023-02-11T14:30:09.592Z,14.61
2023-02-11T14:35:06.931Z,15.64
2023-02-11T14:40:05.840Z,14.73
2023-02-11T14:45:05.023Z,15.18
2023-02-11T14:50:04.595Z,15.91
2023-02-11T14:55:04.536Z,16.33
2023-02-11T15:00:03.799Z,17.26
2023-02-11T15:05:02.311Z,17.57
2023-02-11T15:10:02.473Z,17.48
2023-02-11T15:15:00.660Z,17.57
2023-02-11T15:20:00.780Z,17.98
2023-02-11T15:24:59.139Z,18.08
2023-02-11T15:29:57.978Z,18.39
2023-02-11T15:34:59.306Z,18.39
2023-02-11T15:39:56.500Z,16.25
2023-02-11T15:44:56.865Z,16.51
2023-02-11T15:49:55.019Z,17.36
2023-02-11T15:54:53.413Z,18.28
2023-02-11T15:59:54.632Z,18.18
2023-02-11T16:04:53.960Z,18.59
2023-02-11T16:09:52.182Z,19.31
2023-02-11T16:14:51.461Z,19.21
2023-02-11T16:19:51.714Z,19.51
2023-02-11T16:24:50.870Z,17.32
2023-02-11T16:29:49.004Z,20.21
2023-02-11T16:34:48.293Z,20.64
2023-02-11T16:39:49.778Z,21.69
2023-02-11T16:44:47.098Z,15.70
2023-02-11T16:49:47.344Z,15.61
2023-02-11T16:54:46.296Z,15.72
2023-02-11T16:59:45.629Z,15.92
2023-02-11T17:04:44.969Z,16.22
2023-02-11T17:09:43.184Z,16.74
2023-02-11T17:14:44.432Z,17.16
2023-02-11T17:19:41.624Z,17.67
2023-02-11T17:24:41.796Z,18.19
2023-02-11T17:29:40.927Z,18.50
2023-02-11T17:34:39.385Z,18.80
2023-02-11T17:39:39.449Z,19.12
2023-02-11T17:44:38.658Z,19.53
2023-02-11T17:49:36.849Z,19.74
2023-02-11T17:54:35.705Z,20.05
2023-02-11T17:59:37.179Z,20.36
2023-02-11T18:04:34.587Z,20.68
2023-02-11T18:09:34.493Z,20.89
2023-02-11T18:14:33.030Z,21.20
2023-02-11T18:19:33.200Z,21.41
2023-02-11T18:24:31.365Z,21.62
2023-02-11T18:29:30.219Z,21.08
2023-02-11T18:34:29.415Z,20.15
2023-02-11T18:39:29.911Z,19.21
2023-02-11T18:44:29.084Z,18.28
2023-02-11T18:49:27.252Z,17.46
2023-02-11T18:54:27.126Z,17.35
2023-02-11T18:59:26.663Z,17.67
2023-02-11T19:04:25.956Z,17.97
2023-02-11T19:09:25.017Z,18.18
2023-02-11T19:14:24.290Z,18.39
2023-02-11T19:19:23.496Z,18.80
2023-02-11T19:24:21.662Z,19.12
2023-02-11T19:29:20.894Z,19.53
2023-02-11T19:34:19.746Z,19.84
2023-02-11T19:39:20.274Z,20.16
2023-02-11T19:44:18.143Z,20.47
2023-02-11T19:49:17.804Z,20.68
2023-02-11T19:54:16.828Z,20.98
2023-02-11T19:59:16.027Z,21.09
2023-02-11T20:04:15.989Z,19.01
2023-02-11T20:09:14.494Z,17.97
2023-02-11T20:14:13.349Z,16.53
2023-02-11T20:19:12.842Z,16.03
2023-02-11T20:24:13.088Z,16.53
2023-02-11T20:29:11.292Z,16.74
2023-02-11T20:34:10.468Z,17.06
2023-02-11T20:39:11.673Z,17.47
2023-02-11T20:44:12.025Z,17.88
2023-02-11T20:49:09.795Z,18.29
2023-02-11T20:54:07.456Z,18.60
2023-02-11T20:59:08.299Z,19.12
2023-02-11T21:04:05.874Z,19.44
2023-02-11T21:09:05.089Z,19.96
2023-02-11T21:14:04.249Z,20.26
2023-02-11T21:19:05.046Z,20.57
2023-02-11T21:24:02.672Z,20.89
2023-02-11T21:29:01.912Z,21.09
2023-02-11T21:34:02.210Z,19.22
2023-02-11T21:39:01.253Z,17.98
2023-02-11T21:44:00.567Z,16.64
2023-02-11T21:48:59.851Z,15.92
2023-02-11T21:53:58.760Z,16.44
2023-02-11T21:58:59.519Z,16.64
2023-02-11T22:03:56.616Z,16.96
2023-02-11T22:08:54.653Z,17.37
2023-02-11T22:13:56.967Z,17.79
2023-02-11T22:18:55.858Z,18.30
2023-02-11T22:23:54.394Z,18.62
2023-02-11T22:28:53.784Z,19.02
2023-02-11T22:33:52.877Z,19.34
2023-02-11T22:38:51.192Z,19.76
2023-02-11T22:43:50.506Z,20.17
2023-02-11T22:48:50.813Z,20.59
2023-02-11T22:53:50.125Z,20.59
2023-02-11T22:58:49.460Z,18.82
2023-02-11T23:03:47.791Z,17.06
2023-02-11T23:08:47.119Z,15.52
2023-02-11T23:13:46.243Z,14.90
2023-02-11T23:18:45.568Z,15.42
2023-02-11T23:23:43.873Z,15.73
2023-02-11T23:28:44.222Z,16.24
2023-02-11T23:33:42.329Z,16.65
2023-02-11T23:38:42.646Z,17.17
2023-02-11T23:43:42.971Z,17.58
2023-02-11T23:48:41.292Z,18.00
2023-02-11T23:53:41.451Z,18.41
2023-02-11T23:58:40.576Z,18.84
